Time;durP1;ratioP1;P1;durP2;ratioP2;P2;SDS_P1;SDS_P2;PMS_P1;PMS_P2;Temp;Humidity;BMP_temperature;BMP_pressure;BME280_temperature;BME280_humidity;BME280_pressure;Samples;Min_cycle;Max_cycle;Signal;HPM_P1;HPM_P2
2023/08/25 00:01:52;;;;;;;15.52;6.97;;;;;;;11.06;71.26;99771.69;5099715;28;20050;-79
2023/08/25 00:04:18;;;;;;;22.08;6.00;;;;;;;11.14;71.28;99790.69;5086149;28;20036;-79
2023/08/25 00:06:44;;;;;;;19.08;5.95;;;;;;;11.34;71.89;99828.66;5101585;28;20056;-80
2023/08/25 00:09:10;;;;;;;21.60;6.22;;;;;;;11.29;71.92;99831.34;5083914;28;20097;-77
2023/08/25 00:11:38;;;;;;;22.25;6.00;;;;;;;11.13;71.54;99815.88;5080748;28;20082;-79
2023/08/25 00:14:05;;;;;;;21.80;5.35;;;;;;;11.11;71.59;99804.63;5091512;28;20040;-75
2023/08/25 00:16:31;;;;;;;11.93;4.65;;;;;;;11.09;71.39;99803.78;5073758;28;20040;-77
2023/08/25 00:18:57;;;;;;;10.40;4.65;;;;;;;11.11;71.70;99816.75;5085129;28;20046;-75
2023/08/25 00:21:24;;;;;;;10.63;4.07;;;;;;;10.86;71.76;99775.34;5087632;28;20070;-74
2023/08/25 00:23:50;;;;;;;13.15;3.95;;;;;;;11.08;70.97;99825.47;5073742;28;20040;-76
2023/08/25 00:26:16;;;;;;;11.65;4.20;;;;;;;10.84;71.29;99798.81;5071560;28;20047;-77
2023/08/25 00:28:42;;;;;;;14.52;4.90;;;;;;;10.94;71.88;99822.13;5083140;28;20139;-76
2023/08/25 00:31:11;;;;;;;14.35;4.20;;;;;;;10.92;72.09;99816.13;5074873;28;20040;-77
2023/08/25 00:33:48;;;;;;;14.23;4.95;;;;;;;10.90;71.52;99813.50;5099864;28;20048;-77
2023/08/25 00:36:13;;;;;;;19.08;5.68;;;;;;;10.85;72.06;99813.56;5090660;28;20493;-77
2023/08/25 00:38:40;;;;;;;17.80;5.25;;;;;;;10.61;71.52;99786.00;5089632;28;20052;-78
2023/08/25 00:41:06;;;;;;;21.35;5.13;;;;;;;10.72;71.92;99816.28;5098546;28;20044;-77
2023/08/25 00:43:33;;;;;;;19.15;5.90;;;;;;;10.68;71.71;99811.09;5085381;28;20515;-76
2023/08/25 00:46:01;;;;;;;13.00;6.00;;;;;;;10.74;71.69;99818.00;5098062;28;20043;-77
2023/08/25 00:48:28;;;;;;;14.77;7.30;;;;;;;10.72;71.53;99829.31;5084769;28;20536;-78
2023/08/25 00:50:54;;;;;;;12.73;6.05;;;;;;;10.71;71.99;99818.00;5080372;28;20036;-77
2023/08/25 00:53:22;;;;;;;14.43;7.20;;;;;;;10.31;72.19;99750.69;5098993;28;20064;-78
2023/08/25 00:55:49;;;;;;;13.80;5.53;;;;;;;10.67;72.02;99808.53;5085851;28;20468;-79
2023/08/25 00:58:16;;;;;;;23.83;6.75;;;;;;;10.62;72.22;99803.34;5092350;28;20043;-78
2023/08/25 01:00:46;;;;;;;11.40;6.75;;;;;;;10.40;72.42;99768.88;5103264;28;20046;-78
2023/08/25 01:03:13;;;;;;;12.68;6.20;;;;;;;10.48;72.69;99777.44;5084553;28;20489;-80
2023/08/25 01:05:40;;;;;;;16.98;6.57;;;;;;;10.55;72.33;99796.50;5100399;28;20056;-77
2023/08/25 01:08:06;;;;;;;15.93;6.55;;;;;;;10.75;72.58;99829.28;5084984;28;20057;-79
2023/08/25 01:10:58;;;;;;;12.90;6.30;;;;;;;10.41;72.72;99804.41;5101531;28;20039;-79
2023/08/25 01:13:36;;;;;;;16.67;5.75;;;;;;;10.46;72.32;99806.97;5084512;28;20036;-79
2023/08/25 01:16:08;;;;;;;13.65;6.07;;;;;;;10.20;72.49;99769.00;5072090;28;20122;-78
2023/08/25 01:18:36;;;;;;;13.30;6.18;;;;;;;10.59;72.38;99845.03;5101339;28;20043;-79
2023/08/25 01:21:05;;;;;;;21.03;5.50;;;;;;;10.47;72.81;99840.78;5073934;28;20108;-77
2023/08/25 01:23:38;;;;;;;16.10;6.70;;;;;;;10.19;73.06;99794.16;5084746;28;20277;-69
2023/08/25 01:26:05;;;;;;;17.40;6.45;;;;;;;10.28;72.78;99813.13;5086643;28;20051;-73
2023/08/25 01:28:31;;;;;;;19.33;5.05;;;;;;;10.18;73.04;99800.22;5093802;28;20062;-73
2023/08/25 01:30:59;;;;;;;12.45;5.28;;;;;;;10.29;73.04;99807.06;5085052;28;20028;-73
2023/08/25 01:33:28;;;;;;;16.88;5.80;;;;;;;10.23;72.69;99816.66;5083427;28;20043;-74
2023/08/25 01:36:17;;;;;;;17.35;5.93;;;;;;;10.48;73.32;99846.84;5096908;28;20036;-73
2023/08/25 01:39:06;;;;;;;15.25;5.30;;;;;;;10.44;72.60;99848.63;5093862;28;20509;-73
2023/08/25 01:41:45;;;;;;;16.33;5.15;;;;;;;10.10;73.14;99786.41;5080548;28;20036;-74
2023/08/25 01:44:14;;;;;;;9.48;5.45;;;;;;;10.14;73.13;99785.50;5098779;28;20070;-74
2023/08/25 01:46:46;;;;;;;19.75;5.80;;;;;;;10.40;72.36;99839.09;5094391;28;20039;-72
2023/08/25 01:49:14;;;;;;;12.15;5.35;;;;;;;10.24;72.84;99814.91;5097586;28;20035;-73
2023/08/25 01:51:41;;;;;;;16.38;6.25;;;;;;;10.36;72.94;99843.44;5077759;28;20124;-74
2023/08/25 01:54:08;;;;;;;14.90;6.28;;;;;;;10.09;72.84;99808.94;5087943;28;20058;-74
2023/08/25 01:56:35;;;;;;;16.95;5.75;;;;;;;9.94;73.04;99791.72;5080193;28;20063;-74
2023/08/25 01:59:02;;;;;;;22.67;6.00;;;;;;;9.69;73.21;99745.94;5095034;28;20096;-72
2023/08/25 02:01:30;;;;;;;20.13;5.95;;;;;;;10.09;72.91;99819.34;5094961;28;20043;-73
2023/08/25 02:03:57;;;;;;;17.42;5.28;;;;;;;10.09;73.05;99834.06;5082470;28;20086;-72
2023/08/25 02:06:25;;;;;;;14.20;5.75;;;;;;;10.09;72.78;99847.94;5092825;28;20044;-73
2023/08/25 02:08:51;;;;;;;23.85;7.43;;;;;;;10.05;72.69;99840.16;5094925;28;20092;-73
2023/08/25 02:11:17;;;;;;;14.77;5.93;;;;;;;9.91;72.71;99816.88;5083826;28;20069;-72
2023/08/25 02:13:44;;;;;;;20.38;6.10;;;;;;;9.79;73.01;99808.25;5072079;28;20119;-73
2023/08/25 02:16:11;;;;;;;19.80;6.40;;;;;;;9.67;72.84;99797.94;5095314;28;20394;-73
2023/08/25 02:18:40;;;;;;;16.85;6.10;;;;;;;9.85;73.23;99830.75;5080711;28;20035;-74
2023/08/25 02:21:09;;;;;;;16.00;5.90;;;;;;;9.82;73.41;99838.53;5085430;28;20059;-73
2023/08/25 02:23:35;;;;;;;13.63;5.57;;;;;;;9.91;73.37;99835.91;5089022;28;20532;-73
2023/08/25 02:26:03;;;;;;;12.38;6.07;;;;;;;9.87;73.40;99818.59;5081609;28;20036;-71
2023/08/25 02:28:29;;;;;;;17.42;5.80;;;;;;;10.12;73.46;99857.47;5087275;28;20058;-73
2023/08/25 02:30:56;;;;;;;14.35;6.18;;;;;;;9.76;73.33;99791.81;5100982;28;20467;-72
2023/08/25 02:33:22;;;;;;;13.77;5.55;;;;;;;10.07;73.71;99839.28;5072523;28;20044;-74
2023/08/25 02:35:48;;;;;;;12.48;5.68;;;;;;;10.14;73.44;99862.66;5068452;28;20085;-73
2023/08/25 02:38:14;;;;;;;25.42;6.95;;;;;;;10.05;73.60;99847.97;5104979;28;20125;-73
2023/08/25 02:40:40;;;;;;;24.33;6.60;;;;;;;9.97;73.43;99840.22;5100895;28;20127;-72
2023/08/25 02:43:07;;;;;;;13.63;6.05;;;;;;;9.98;73.41;99839.34;5075786;28;20062;-72
2023/08/25 02:45:35;;;;;;;17.73;5.70;;;;;;;10.07;74.08;99849.69;5071923;28;20058;-73
2023/08/25 02:48:02;;;;;;;22.30;7.22;;;;;;;10.10;73.66;99854.88;5100405;28;20405;-74
2023/08/25 02:50:29;;;;;;;26.58;6.05;;;;;;;10.24;73.65;99864.31;5100104;28;20071;-73
2023/08/25 02:52:56;;;;;;;20.63;6.30;;;;;;;10.19;73.61;99845.28;5100687;28;20055;-73
2023/08/25 02:55:23;;;;;;;18.80;6.95;;;;;;;10.17;73.14;99847.91;5086150;28;20031;-73
2023/08/25 02:57:50;;;;;;;27.45;6.22;;;;;;;10.04;73.60;99815.06;5099306;28;20047;-72
2023/08/25 03:00:23;;;;;;;21.33;6.40;;;;;;;10.41;74.05;99856.44;5085212;28;20116;-74
2023/08/25 03:02:49;;;;;;;17.08;5.70;;;;;;;10.50;73.69;99858.09;5082308;28;20036;-74
2023/08/25 03:05:17;;;;;;;20.75;6.32;;;;;;;10.45;73.61;99842.53;5092125;28;20421;-73
2023/08/25 03:07:46;;;;;;;20.38;6.00;;;;;;;10.50;73.87;99837.28;5086685;28;20048;-72
2023/08/25 03:10:13;;;;;;;16.58;5.80;;;;;;;10.63;73.72;99856.28;5065845;28;20084;-72
2023/08/25 03:12:43;;;;;;;16.13;6.25;;;;;;;10.74;73.76;99864.84;5082871;28;20090;-72
2023/08/25 03:15:12;;;;;;;14.15;5.10;;;;;;;10.86;73.65;99863.88;5098754;28;20043;-73
2023/08/25 03:17:41;;;;;;;17.42;5.60;;;;;;;10.89;73.86;99847.38;5085400;28;20071;-75
2023/08/25 03:20:08;;;;;;;28.13;7.03;;;;;;;11.00;73.65;99858.53;5097124;28;20067;-73
2023/08/25 03:22:35;;;;;;;22.10;6.13;;;;;;;11.14;73.57;99868.81;5085382;28;20039;-73
2023/08/25 03:25:01;;;;;;;9.98;5.55;;;;;;;11.13;73.90;99861.88;5085777;28;20126;-73
2023/08/25 03:27:34;;;;;;;23.65;8.40;;;;;;;11.28;73.58;99866.06;5082826;28;20105;-73
2023/08/25 03:30:01;;;;;;;28.52;8.88;;;;;;;11.26;73.20;99852.19;5084488;28;20043;-74
2023/08/25 03:32:29;;;;;;;21.65;8.45;;;;;;;11.20;73.85;99834.03;5084259;28;20031;-74
2023/08/25 03:34:55;;;;;;;27.33;7.80;;;;;;;11.61;73.43;99874.38;5097342;28;20051;-74
2023/08/25 03:37:21;;;;;;;26.80;7.30;;;;;;;11.79;73.45;99878.50;5086039;28;20058;-74
2023/08/25 03:39:47;;;;;;;22.20;7.47;;;;;;;11.77;73.52;99851.59;5098633;28;20048;-74
2023/08/25 03:42:13;;;;;;;28.58;7.32;;;;;;;12.02;73.24;99867.81;5082229;28;20061;-73
2023/08/25 03:44:39;;;;;;;21.63;7.32;;;;;;;12.00;73.40;99840.91;5073535;28;20043;-74
2023/08/25 03:47:06;;;;;;;19.58;6.93;;;;;;;12.33;73.14;99869.97;5072536;28;20092;-73
2023/08/25 03:49:33;;;;;;;15.65;6.90;;;;;;;12.55;72.92;99867.03;5095896;28;20040;-75
2023/08/25 03:51:59;;;;;;;12.75;6.28;;;;;;;12.78;72.83;99876.25;5073645;28;20474;-76
2023/08/25 03:54:30;;;;;;;12.50;6.20;;;;;;;12.76;72.02;99858.00;5085280;28;20047;-75
2023/08/25 03:56:56;;;;;;;11.68;6.03;;;;;;;13.14;72.62;99883.47;5078832;28;20131;-71
2023/08/25 03:59:22;;;;;;;12.43;5.75;;;;;;;13.38;72.39;99887.38;5098737;28;20142;-81
2023/08/25 04:01:51;;;;;;;10.60;5.20;;;;;;;13.63;72.24;99892.16;5099477;28;20036;-72
2023/08/25 04:04:17;;;;;;;12.40;5.50;;;;;;;13.49;71.57;99843.63;5098256;28;20036;-77
2023/08/25 04:06:44;;;;;;;8.50;4.68;;;;;;;13.59;71.68;99820.78;5096986;28;20097;-75
2023/08/25 04:09:10;;;;;;;10.15;5.40;;;;;;;14.26;71.47;99885.59;5071922;28;20040;-74
2023/08/25 04:11:36;;;;;;;12.40;5.65;;;;;;;14.11;71.03;99816.13;5099930;28;20032;-76
2023/08/25 04:14:02;;;;;;;8.85;5.75;;;;;;;14.78;70.77;99880.03;5085056;28;20130;-73
2023/08/25 04:16:28;;;;;;;11.82;5.78;;;;;;;14.90;70.12;99853.53;5089587;28;20108;-73
2023/08/25 04:18:54;;;;;;;6.22;5.20;;;;;;;15.26;69.48;99876.19;5097943;28;20048;-74
2023/08/25 04:21:21;;;;;;;13.55;5.47;;;;;;;15.48;69.15;99870.34;5090034;28;20037;-73
2023/08/25 04:23:48;;;;;;;11.35;4.85;;;;;;;15.62;68.74;99857.69;5083438;28;20039;-72
2023/08/25 04:26:14;;;;;;;8.60;5.10;;;;;;;15.92;67.96;99869.97;5081204;28;20038;-75
2023/08/25 04:28:43;;;;;;;7.70;4.80;;;;;;;16.11;67.35;99875.53;5089573;28;20031;-69
2023/08/25 04:31:09;;;;;;;7.15;4.57;;;;;;;15.78;66.84;99813.50;5081798;28;20518;-75
2023/08/25 04:33:39;;;;;;;8.20;4.40;;;;;;;16.26;65.78;99867.19;5064764;28;20139;-75
2023/08/25 04:36:07;;;;;;;5.57;4.47;;;;;;;16.47;64.71;99867.41;5087649;28;20035;-71
2023/08/25 04:38:34;;;;;;;8.38;4.47;;;;;;;16.75;64.60;99878.78;5107568;28;20032;-74
2023/08/25 04:41:01;;;;;;;6.97;4.43;;;;;;;16.94;63.96;99887.78;5082716;28;20058;-74
2023/08/25 04:43:28;;;;;;;7.40;4.60;;;;;;;17.07;63.30;99872.47;5065513;28;20043;-76
2023/08/25 04:45:54;;;;;;;6.82;3.95;;;;;;;17.35;62.75;99895.16;5085342;28;20616;-75
2023/08/25 04:48:24;;;;;;;6.68;4.00;;;;;;;17.44;61.63;99873.78;5089915;28;20516;-74
2023/08/25 04:50:50;;;;;;;7.75;4.53;;;;;;;17.63;61.44;99872.28;5083618;28;20067;-76
2023/08/25 04:53:17;;;;;;;6.75;4.30;;;;;;;17.94;60.88;99897.41;5100652;28;20038;-72
2023/08/25 04:55:43;;;;;;;9.90;4.78;;;;;;;18.12;59.83;99888.84;5098715;28;20049;-75
2023/08/25 04:58:09;;;;;;;7.63;4.15;;;;;;;18.11;59.31;99863.44;5081454;28;20068;-75
2023/08/25 05:00:35;;;;;;;7.88;4.55;;;;;;;18.52;58.63;99902.22;5096245;28;20055;-77
2023/08/25 05:03:02;;;;;;;11.45;4.60;;;;;;;18.55;58.10;99875.75;5086039;28;20371;-74
2023/08/25 05:05:29;;;;;;;9.02;4.95;;;;;;;18.75;57.52;99871.44;5098713;28;20039;-76
2023/08/25 05:07:57;;;;;;;8.20;5.28;;;;;;;18.95;56.10;99878.56;5094697;28;20584;-73
2023/08/25 05:10:23;;;;;;;8.27;5.13;;;;;;;18.92;56.34;99876.00;5098505;28;20063;-74
2023/08/25 05:12:50;;;;;;;10.63;4.70;;;;;;;19.24;55.69;99894.88;5071536;28;20050;-75
2023/08/25 05:15:17;;;;;;;7.93;4.95;;;;;;;19.61;55.82;99885.34;5071539;28;20035;-75
2023/08/25 05:17:44;;;;;;;7.80;4.85;;;;;;;20.22;54.68;99885.22;5072275;28;20048;-75
2023/08/25 05:20:12;;;;;;;6.20;4.60;;;;;;;21.88;55.29;99898.94;5072540;28;20036;-72
2023/08/25 05:22:38;;;;;;;9.27;4.60;;;;;;;23.90;52.72;99874.81;5090569;28;20040;-73
2023/08/25 05:25:05;;;;;;;6.63;4.25;;;;;;;25.83;49.77;99854.00;5085477;28;20122;-76
2023/08/25 05:27:34;;;;;;;4.57;4.13;;;;;;;27.72;46.34;99866.56;5087006;28;20033;-72
2023/08/25 05:30:04;;;;;;;6.45;3.83;;;;;;;29.26;42.13;99857.50;5097838;28;20035;-73
2023/08/25 05:32:32;;;;;;;7.13;4.53;;;;;;;30.39;38.78;99864.63;5098738;28;20032;-75
2023/08/25 05:35:25;;;;;;;5.93;4.15;;;;;;;31.58;36.31;99847.31;5064741;28;20046;-74
2023/08/25 05:37:51;;;;;;;6.38;4.28;;;;;;;32.60;34.08;99875.00;5093806;28;20078;-74
2023/08/25 05:40:17;;;;;;;6.85;4.15;;;;;;;33.39;32.31;99839.22;5078616;28;20036;-74
2023/08/25 05:42:47;;;;;;;6.60;4.40;;;;;;;34.42;30.82;99873.22;5078363;28;20409;-74
2023/08/25 05:45:13;;;;;;;6.85;4.30;;;;;;;34.80;29.71;99811.47;5102064;28;20067;-76
2023/08/25 05:47:39;;;;;;;7.43;4.07;;;;;;;35.84;28.03;99840.38;5078677;28;20125;-75
2023/08/25 05:50:09;;;;;;;4.60;3.58;;;;;;;36.72;26.97;99842.81;5083979;28;20120;-75
2023/08/25 05:52:39;;;;;;;6.68;2.95;;;;;;;37.17;25.25;99817.66;5077736;28;20039;-74
2023/08/25 05:55:06;;;;;;;5.53;3.38;;;;;;;38.14;23.85;99856.44;5064600;28;20508;-76
2023/08/25 05:57:32;;;;;;;4.65;2.70;;;;;;;38.71;22.76;99857.41;5091206;28;20386;-75
2023/08/25 05:59:58;;;;;;;8.82;2.97;;;;;;;39.25;21.41;99846.06;5091164;28;20047;-76
2023/08/25 06:02:24;;;;;;;3.90;2.78;;;;;;;39.95;20.74;99873.16;5097858;28;20032;-75
2023/08/25 06:04:50;;;;;;;5.15;2.70;;;;;;;40.21;19.59;99856.09;5081426;28;20044;-74
2023/08/25 06:07:17;;;;;;;4.68;3.10;;;;;;;40.23;19.93;99849.59;5083575;28;20036;-76
2023/08/25 06:09:42;;;;;;;5.53;3.15;;;;;;;41.15;19.19;99865.34;5089299;28;20072;-77
2023/08/25 06:12:09;;;;;;;4.07;3.22;;;;;;;41.87;18.21;99873.44;5066500;28;20148;-76
2023/08/25 06:14:37;;;;;;;3.20;2.53;;;;;;;42.23;17.29;99869.28;5094641;28;20043;-75
2023/08/25 06:17:03;;;;;;;4.05;2.10;;;;;;;42.69;16.77;99869.97;5091086;28;20038;-75
2023/08/25 06:19:30;;;;;;;7.20;2.03;;;;;;;42.92;16.33;99852.13;5090777;28;20040;-76
2023/08/25 06:21:57;;;;;;;3.40;2.58;;;;;;;43.59;15.53;99834.09;5090241;28;20101;-79
2023/08/25 06:24:24;;;;;;;5.15;2.55;;;;;;;43.91;15.20;99847.59;5090125;28;20074;-76
2023/08/25 06:26:51;;;;;;;5.55;2.63;;;;;;;44.46;14.95;99871.25;5089499;28;20082;-78
2023/08/25 06:29:19;;;;;;;4.00;3.00;;;;;;;44.88;14.44;99833.84;5089003;28;20036;-76
2023/08/25 06:31:46;;;;;;;2.75;2.15;;;;;;;45.62;13.88;99860.66;5093894;28;20390;-75
2023/08/25 06:34:12;;;;;;;4.20;2.50;;;;;;;45.92;13.18;99856.81;5095719;28;20112;-76
2023/08/25 06:36:38;;;;;;;3.70;2.00;;;;;;;45.75;12.86;99804.63;5081725;28;20818;-74
2023/08/25 06:39:07;;;;;;;3.25;2.33;;;;;;;46.47;12.45;99860.84;5087781;28;20043;-75
2023/08/25 06:41:33;;;;;;;3.35;2.15;;;;;;;46.46;12.19;99839.09;5082319;28;20085;-77
2023/08/25 06:44:07;;;;;;;2.80;2.00;;;;;;;45.84;12.43;99840.75;5097990;28;20043;-75
2023/08/25 06:46:33;;;;;;;4.13;2.20;;;;;;;46.30;11.94;99844.34;5094275;28;20031;-73
2023/08/25 06:48:59;;;;;;;5.13;2.40;;;;;;;46.86;11.55;99815.22;5093877;28;20079;-75
2023/08/25 06:51:25;;;;;;;2.67;1.90;;;;;;;47.62;11.34;99855.00;5095329;28;20044;-75
2023/08/25 06:53:51;;;;;;;3.08;1.65;;;;;;;48.02;10.91;99836.38;5094157;28;20036;-75
2023/08/25 06:56:17;;;;;;;2.15;1.88;;;;;;;48.37;10.37;99859.88;5099907;28;20038;-73
2023/08/25 07:01:32;;;;;;;2.65;2.05;;;;;;;48.52;9.89;99824.13;4947006;28;20051;-77
2023/08/25 07:03:58;;;;;;;3.60;2.00;;;;;;;48.59;9.86;99823.06;4931036;29;20046;-73
2023/08/25 07:06:24;;;;;;;2.45;1.83;;;;;;;49.14;9.48;99854.03;4944228;28;20036;-74
2023/08/25 07:08:50;;;;;;;3.83;2.03;;;;;;;49.53;9.31;99855.56;4961614;28;20054;-77
2023/08/25 07:11:19;;;;;;;9.02;6.85;;;;;;;49.92;9.27;99863.41;4937565;28;20040;-76
2023/08/25 07:13:48;;;;;;;4.13;3.05;;;;;;;50.00;9.26;99820.56;4944463;28;20047;-74
2023/08/25 07:16:14;;;;;;;2.72;2.22;;;;;;;48.35;9.37;99849.09;4927597;28;20062;-75
2023/08/25 07:18:43;;;;;;;3.88;2.28;;;;;;;45.72;9.93;99841.63;4941163;28;20494;-77
2023/08/25 07:21:11;;;;;;;3.53;3.13;;;;;;;44.18;11.10;99841.75;4932104;28;20055;-74
2023/08/25 07:23:41;;;;;;;3.28;2.38;;;;;;;45.24;10.66;99829.97;4942609;28;20051;-75
2023/08/25 07:26:07;;;;;;;3.00;1.70;;;;;;;45.95;10.13;99836.28;4940259;29;20142;-78
2023/08/25 07:28:33;;;;;;;2.25;1.80;;;;;;;46.20;10.04;99860.66;4956668;28;20071;-76
2023/08/25 07:30:59;;;;;;;3.67;2.20;;;;;;;47.18;9.26;99853.06;4948391;28;20066;-75
2023/08/25 07:33:26;;;;;;;5.22;2.60;;;;;;;48.15;9.16;99832.34;4949452;28;20053;-76
2023/08/25 07:35:52;;;;;;;5.85;4.15;;;;;;;49.20;8.77;99852.97;4932445;29;20047;-78
2023/08/25 07:38:18;;;;;;;4.20;2.60;;;;;;;49.80;8.67;99832.41;4947137;28;20497;-78
2023/08/25 07:40:44;;;;;;;2.33;1.50;;;;;;;50.52;8.50;99865.63;4944259;28;20050;-74
2023/08/25 07:43:10;;;;;;;3.33;1.50;;;;;;;50.33;7.43;99865.34;4944755;28;20062;-74
2023/08/25 07:45:37;;;;;;;1.70;1.60;;;;;;;49.78;8.03;99842.88;4946698;28;20047;-75
2023/08/25 07:48:03;;;;;;;1.75;1.40;;;;;;;50.37;7.43;99860.91;4922758;28;20035;-73
2023/08/25 07:50:30;;;;;;;5.20;1.90;;;;;;;50.02;7.64;99812.81;4959089;28;20051;-77
2023/08/25 07:52:57;;;;;;;2.95;2.00;;;;;;;50.56;7.54;99858.44;4945319;28;20438;-77
2023/08/25 07:55:23;;;;;;;3.95;2.70;;;;;;;51.27;7.01;99858.53;4943838;28;20047;-75
2023/08/25 07:57:51;;;;;;;3.03;1.80;;;;;;;50.67;7.17;99852.88;4940823;28;20497;-77
2023/08/25 08:00:18;;;;;;;2.60;1.70;;;;;;;49.24;7.86;99826.44;4939567;28;20055;-75
2023/08/25 08:02:48;;;;;;;2.33;1.63;;;;;;;49.24;7.86;99848.53;4913692;29;20047;-75
2023/08/25 08:05:18;;;;;;;5.55;2.00;;;;;;;49.83;7.51;99835.47;4946664;28;20039;-75
2023/08/25 08:07:46;;;;;;;4.72;2.10;;;;;;;50.56;7.34;99844.59;4944284;28;20051;-75
2023/08/25 08:10:12;;;;;;;2.65;1.90;;;;;;;50.79;7.12;99853.41;4960341;28;20043;-75
2023/08/25 08:12:39;;;;;;;5.15;4.57;;;;;;;51.02;7.15;99849.19;4941753;28;20119;-74
2023/08/25 08:15:06;;;;;;;5.13;4.40;;;;;;;51.56;6.94;99857.00;4943866;28;20405;-80
2023/08/25 08:17:33;;;;;;;9.38;6.15;;;;;;;51.59;6.63;99832.34;4910416;28;20066;-76
2023/08/25 08:19:59;;;;;;;8.00;5.07;;;;;;;51.85;6.96;99854.31;4944006;28;20105;-73
2023/08/25 08:22:25;;;;;;;8.15;4.32;;;;;;;51.90;7.04;99848.75;4941288;28;20043;-75
2023/08/25 08:24:51;;;;;;;13.52;9.82;;;;;;;51.90;6.54;99831.28;4948789;28;20059;-76
2023/08/25 08:27:18;;;;;;;13.90;12.52;;;;;;;52.16;7.11;99822.75;4940567;28;20358;-74
2023/08/25 08:29:47;;;;;;;2.78;2.58;;;;;;;52.65;6.45;99845.91;4928900;29;20060;-73
2023/08/25 08:32:16;;;;;;;5.57;4.70;;;;;;;52.68;5.84;99831.44;4939416;28;20047;-74
2023/08/25 08:34:43;;;;;;;3.28;2.20;;;;;;;52.39;6.35;99827.56;4928514;29;20070;-74
2023/08/25 08:37:09;;;;;;;9.05;7.88;;;;;;;51.88;6.69;99847.38;4946868;28;20046;-74
2023/08/25 08:39:38;;;;;;;6.13;4.70;;;;;;;51.99;6.29;99846.19;4928922;29;20102;-73
2023/08/25 08:42:09;;;;;;;11.32;6.43;;;;;;;52.22;6.46;99827.97;4958929;28;20035;-74
2023/08/25 08:44:37;;;;;;;11.10;9.10;;;;;;;52.71;6.45;99837.22;4940556;28;20122;-72
2023/08/25 08:47:03;;;;;;;9.02;8.02;;;;;;;52.99;6.53;99845.78;4939180;28;21079;-74
2023/08/25 08:49:33;;;;;;;4.72;2.70;;;;;;;52.75;6.05;99851.31;4939896;28;20408;-74
2023/08/25 08:52:01;;;;;;;7.43;4.10;;;;;;;52.15;5.80;99821.91;4942543;28;20047;-74
2023/08/25 08:54:28;;;;;;;4.63;2.63;;;;;;;52.36;6.38;99833.69;4942559;28;20061;-75
2023/08/25 08:56:54;;;;;;;4.82;3.28;;;;;;;52.71;5.73;99836.41;4925905;29;20135;-73
2023/08/25 08:59:21;;;;;;;4.40;2.72;;;;;;;52.31;6.11;99830.16;4939080;28;20063;-76
2023/08/25 09:01:48;;;;;;;3.10;2.10;;;;;;;51.58;5.94;99858.38;4942068;28;20155;-73
2023/08/25 09:04:22;;;;;;;7.40;3.05;;;;;;;48.92;6.97;99846.72;4943917;28;20527;-74
2023/08/25 09:06:52;;;;;;;4.13;3.75;;;;;;;46.19;8.37;99847.16;4940619;28;20210;-77
2023/08/25 09:09:19;;;;;;;2.78;2.47;;;;;;;43.74;9.54;99836.44;4937591;28;20537;-76
2023/08/25 09:11:46;;;;;;;4.70;2.55;;;;;;;41.96;10.21;99849.47;4940508;28;20035;-77
2023/08/25 09:14:21;;;;;;;3.85;3.05;;;;;;;40.19;10.84;99822.75;4941695;28;20418;-77
2023/08/25 09:16:48;;;;;;;5.65;2.72;;;;;;;38.52;11.99;99820.88;4938776;28;20047;-76
2023/08/25 09:19:16;;;;;;;6.05;2.25;;;;;;;37.60;13.07;99822.41;4941686;28;20048;-77
2023/08/25 09:21:46;;;;;;;7.63;2.28;;;;;;;37.36;13.28;99848.78;4939888;28;20402;-77
2023/08/25 09:24:18;;;;;;;6.75;1.90;;;;;;;38.38;13.07;99836.22;4939735;28;20078;-80
2023/08/25 09:26:46;;;;;;;4.90;1.90;;;;;;;40.35;12.20;99829.72;4939453;28;20051;-76
2023/08/25 09:29:15;;;;;;;2.72;2.08;;;;;;;42.29;11.21;99800.06;4957052;28;20047;-76
2023/08/25 09:31:42;;;;;;;5.38;1.60;;;;;;;43.28;10.33;99823.13;4942138;28;20171;-76
2023/08/25 09:34:10;;;;;;;3.17;1.60;;;;;;;44.38;9.15;99828.53;4939575;28;20142;-77
2023/08/25 09:36:53;;;;;;;6.63;1.70;;;;;;;44.70;9.07;99821.91;4938974;28;20038;-74
2023/08/25 09:39:20;;;;;;;6.88;2.00;;;;;;;45.41;8.49;99812.72;4954961;28;20139;-75
2023/08/25 09:41:46;;;;;;;2.28;1.60;;;;;;;45.93;8.37;99795.28;4925031;28;20031;-78
2023/08/25 09:44:13;;;;;;;5.00;2.22;;;;;;;46.83;8.05;99826.72;4938993;28;20079;-73
2023/08/25 09:46:39;;;;;;;2.85;1.88;;;;;;;46.76;7.82;99819.47;4940446;28;20443;-76
2023/08/25 09:49:10;;;;;;;3.67;2.00;;;;;;;46.84;8.90;99829.22;4938324;28;20050;-76
2023/08/25 09:51:39;;;;;;;3.53;1.80;;;;;;;47.43;8.06;99826.94;4943866;28;20494;-76
2023/08/25 09:54:15;;;;;;;2.70;1.73;;;;;;;47.91;7.42;99824.41;4920641;28;20109;-77
2023/08/25 09:56:46;;;;;;;4.15;2.30;;;;;;;48.35;7.50;99824.28;4931166;29;20053;-75
2023/08/25 09:59:14;;;;;;;3.72;2.30;;;;;;;48.63;7.54;99826.94;4938749;29;20039;-76
2023/08/25 10:01:45;;;;;;;6.28;2.28;;;;;;;48.26;7.15;99812.06;4944930;28;20049;-77
2023/08/25 10:04:13;;;;;;;2.47;1.90;;;;;;;46.33;7.95;99832.00;4938972;29;20106;-73
2023/08/25 10:06:39;;;;;;;4.68;2.50;;;;;;;43.31;8.94;99816.38;4957505;28;20076;-76
2023/08/25 10:09:07;;;;;;;5.32;2.35;;;;;;;41.36;9.66;99823.28;4928223;29;20036;-73
2023/08/25 10:11:52;;;;;;;4.60;2.30;;;;;;;40.10;10.47;99821.25;4943841;28;20134;-77
2023/08/25 10:14:24;;;;;;;5.38;1.70;;;;;;;39.54;11.46;99820.47;4941434;28;20147;-75
2023/08/25 10:16:52;;;;;;;6.22;2.20;;;;;;;40.69;10.77;99816.09;4945584;28;20047;-75
2023/08/25 10:19:26;;;;;;;6.25;3.60;;;;;;;40.17;10.69;99819.38;4928614;29;20055;-76
2023/08/25 10:21:54;;;;;;;5.88;4.97;;;;;;;38.80;11.70;99828.19;4914739;29;20484;-75
2023/08/25 10:24:28;;;;;;;5.35;3.28;;;;;;;37.38;12.21;99816.91;4945431;28;20035;-75
2023/08/25 10:26:55;;;;;;;10.85;6.53;;;;;;;36.28;13.01;99819.13;4941599;28;20134;-75
2023/08/25 10:29:24;;;;;;;11.43;5.50;;;;;;;35.40;14.04;99817.41;4959135;28;20102;-74
2023/08/25 10:31:58;;;;;;;11.00;6.53;;;;;;;34.69;14.66;99817.22;4960120;28;20039;-76
2023/08/25 10:34:42;;;;;;;8.15;4.35;;;;;;;33.79;15.45;99819.63;4925546;28;20584;-74
2023/08/25 10:37:10;;;;;;;8.65;4.30;;;;;;;33.04;16.25;99842.69;4925054;29;20043;-76
2023/08/25 10:39:59;;;;;;;3.10;1.95;;;;;;;32.37;16.57;99836.94;4928446;29;20071;-75
2023/08/25 10:42:31;;;;;;;5.95;2.28;;;;;;;31.88;16.83;99831.91;4920457;28;20043;-78
2023/08/25 10:45:03;;;;;;;4.65;1.90;;;;;;;31.28;17.17;99780.25;4945215;28;20064;-74
2023/08/25 10:47:30;;;;;;;7.57;1.85;;;;;;;31.00;17.97;99793.63;4925398;28;20039;-76
2023/08/25 10:50:00;;;;;;;7.25;2.47;;;;;;;30.95;17.74;99798.59;4937673;28;20166;-78
2023/08/25 10:52:26;;;;;;;4.47;2.10;;;;;;;31.14;18.10;99827.25;4929758;28;20050;-76
2023/08/25 10:54:53;;;;;;;3.67;1.90;;;;;;;30.59;18.69;99801.91;4920608;29;20090;-77
2023/08/25 10:57:29;;;;;;;3.85;2.25;;;;;;;30.53;18.88;99839.19;4926333;29;20529;-77
2023/08/25 11:00:24;;;;;;;3.47;1.60;;;;;;;30.31;18.53;99831.31;4923296;29;20117;-79
2023/08/25 11:02:51;;;;;;;3.47;1.90;;;;;;;30.14;18.40;99831.97;4932493;29;20601;-75
2023/08/25 11:05:26;;;;;;;2.65;1.80;;;;;;;29.79;18.75;99828.81;4945960;28;20039;-72
2023/08/25 11:07:55;;;;;;;3.10;1.65;;;;;;;29.53;18.99;99836.47;4945442;28;20047;-69
2023/08/25 11:10:22;;;;;;;5.00;2.00;;;;;;;29.33;19.23;99839.03;4960711;28;20044;-69
2023/08/25 11:12:53;;;;;;;5.80;4.15;;;;;;;29.21;19.59;99834.78;4946888;28;20134;-69
2023/08/25 11:15:21;;;;;;;6.10;4.38;;;;;;;28.99;19.58;99826.75;4945112;28;20051;-69
2023/08/25 11:17:51;;;;;;;7.40;4.00;;;;;;;28.70;20.26;99839.91;4947999;28;20103;-70
2023/08/25 11:20:17;;;;;;;4.80;2.75;;;;;;;28.55;20.55;99832.22;4947274;28;20605;-69
2023/08/25 11:22:53;;;;;;;5.68;3.97;;;;;;;28.56;20.59;99835.72;4950972;28;20051;-74
2023/08/25 11:25:19;;;;;;;4.03;3.55;;;;;;;28.40;20.95;99814.75;4950640;28;20084;-69
2023/08/25 11:27:52;;;;;;;5.82;3.83;;;;;;;28.51;21.06;99829.91;4949911;28;20179;-71
2023/08/25 11:30:18;;;;;;;3.92;1.60;;;;;;;28.48;20.97;99836.38;4943196;28;20140;-70
2023/08/25 11:32:45;;;;;;;4.90;1.58;;;;;;;28.37;20.84;99839.09;4942715;28;20067;-72
2023/08/25 11:35:13;;;;;;;4.95;1.70;;;;;;;27.73;21.13;99827.31;4928516;29;20039;-71
2023/08/25 11:37:39;;;;;;;2.38;1.60;;;;;;;27.50;21.88;99838.03;4945939;28;20064;-71
2023/08/25 11:40:25;;;;;;;2.08;1.80;;;;;;;27.23;22.05;99833.03;4944868;28;20528;-72